Maryland AWOS List, Phone Numbers

USA |  
| Search AWOS

Rocky Mountain States: Montana | Wyoming | Colorado | New Mexico

Complete weather reports: Maryland

Legend: KFNL = METAR available Follow your local AWOS on AV Mobile = METAR available on AV Mobile
Station Maryland Location Frequency Phone
KAPGFAA ID APG, KAPG 210056Z 03003KT 2SM -SHRA BR OVC005 05/05 A2992 Follow KAPG on AV Mobile Phillips Army Air Field / Aberdeen
K61WICAO ID K61W Annapolis Coast Guard Station
KNAKICAO ID KNAK, KNAK 220054Z AUTO 10003KT 1/4SM FG VV005 07/06 A2981 RMK AO2 SLP097 T00670061 Follow KNAK on AV Mobile ANNAPOLIS US NAVAL ACADEMY
KLWXICAO ID KLWX Baltimore / DC Nexrad
KDMHICAO ID KDMH, KDMH 220054Z AUTO 08/07 A2981 RMK AO1 SLP096 T00780067 Follow KDMH on AV Mobile BALTIMORE DOWNTOWN
KMTNFAA ID MTN, AWOS-3PT, KMTN 220045Z 00000KT 1/2SM FG OVC002 07/07 A2982 Follow KMTN on AV Mobile Baltimore / Martin 124.925 410-682-8848
KBWIFAA ID BWI, ASOS, KBWI 220054Z 15003KT 1SM R10/5500VP6000FT -DZ BR VV002 07/07 A2981 Follow KBWI on AV Mobile BALTIMORE-WASHINGTON INTERNATIONAL 410-691-1278
4MDFAA ID 4MD, Belfort PIER 7
KCGEFAA ID CGE, AWOS-3, KCGE 220119Z AUTO 00000KT 3/4SM OVC001 07/07 A2980 RMK AO1 Follow KCGE on AV Mobile CAMBRIDGE 120.675 410-228-7559
KADWFAA ID ADW, KADW 220137Z AUTO 09003KT 3/4SM R01L/3500FT BR VV002 08/08 A2980 RMK AO2 Follow KADW on AV Mobile Camp Springs / Andrews Air Force Base
W32FAA ID W32, Belfort WASHINGTON EXECUTIVE/HYDE FIELD
KCGSFAA ID CGS, AWOS-3, KCGS 220124Z AUTO 14003KT 2 1/2SM OVC003 08/08 A2981 RMK AO1 Follow KCGS on AV Mobile COLLEGE PARK 121.225 301-864-5497
K66WICAO ID K66W Cove Point Coast Guard Light Station
KCBEFAA ID CBE, AWOS-3, KCBE 220124Z AUTO 00000KT 7SM SCT006 OVC010 07/07 A2983 Follow KCBE on AV Mobile Cumberland, Greater Cumberland Regional Airport 128.625 304-738-0451
KESNFAA ID ESN, AWOS-3, KESN 220050Z 00000KT 7SM BKN004 OVC010 08/08 A2985 Follow KESN on AV Mobile Easton / Newman Field 124.475 410-822-2817
KFMEFAA ID FME, AWOS-3, KFME 220121Z AUTO 00000KT 1 3/4SM OVC002 07/07 A2982 RMK AO1 Follow KFME on AV Mobile Fort Meade / Tipton 123.925
KJWXICAO ID KJWX Fort Ritchie
KFDKFAA ID FDK, AWOS-3, KFDK 220048Z 00000KT 1SM BR OVC004 08/08 A2983 Follow KFDK on AV Mobile Frederick, Frederick Municipal Airport 124.875 301-600-1457
KGAIFAA ID GAI, AWOS-3, KGAI 220135Z AUTO 17004KT 1/2SM OVC002 08/07 A2985 RMK AO1 Follow KGAI on AV Mobile GAITHERSBURG 128.275 301-977-2971
KHGRFAA ID HGR, ASOS, KHGR 220053Z 33003KT 1/2SM FG VV003 07/07 A2980 RMK AO2 SLP104 T00720067 Follow KHGR on AV Mobile HAGERSTOWN REGIONAL AIRPORT 126.375 301-745-3497
K2W6FAA ID 2W6, AWOS-3, K2W6 220123Z AUTO 00000KT 1 3/4SM OVC002 07/07 A2981 RMK AO1 Follow K2W6 on AV Mobile LEONARDTOWN 119.575 301-373-6514
K2G4FAA ID 2G4, AWOS-3, K2G4 220120Z AUTO 22004KT 10SM 11/07 A2977 RMK AO1 Follow K2G4 on AV Mobile OAKLAND 120.125 301-746-8443
KW30ICAO ID KW30 Ocean City
KN80ICAO ID KN80 Ocean City, Ocean City Municipal Airport
KOXBFAA ID OXB, ASOS, KOXB 220053Z AUTO 00000KT 1/4SM FG VV002 07/07 A2983 RMK AO2 SLP101 T00670067 Follow KOXB on AV Mobile OCEAN CITY MUNICIPAL AIRPORT 119.025 410-213-1530
KNHKFAA ID NHK, KNHK 220128Z AUTO 14005KT 1 1/2SM BR OVC003 07/07 A2980 RMK AO2 T00670067 Follow KNHK on AV Mobile NAS PATUXENT RIVER MD
KSBYFAA ID SBY, ASOS, KSBY 220103Z 11005KT 3/4SM BR VV002 09/08 A2981 Follow KSBY on AV Mobile SALISBURY-WICOMICO CTY REG 118.325 410-341-0868
KNUIFAA ID NUI, KNUI 220133Z AUTO 10004KT 2 1/2SM BR OVC003 09/08 A2979 Follow KNUI on AV Mobile KNUI WEBSTER FIELD ANNEX
KW29FAA ID W29, AWOS-3, KW29 220120Z AUTO 00000KT 1/2SM FG OVC003 06/06 A2981 RMK AO2 TSNO Follow KW29 on AV Mobile STEVENSVILLE 120.575 410-643-8795
K67WICAO ID K67W Stillpond Coast Guard Station
K65WICAO ID K65W Thomas Point Coast Guard Station
KDMWFAA ID DMW, AWOS-3, KDMW 220120Z AUTO 22005KT 1 3/4SM BR 07/07 A2981 RMK AO2 Follow KDMW on AV Mobile WESTMINSTER 121.25 410-876-1281

Click on the AV Mobile icon AV Mobile icon by any station to follow that AWOS feed on AirportView.net Mobile.

Garmin Weather Avemco Insurance Company